Time;durP1;ratioP1;P1;durP2;ratioP2;P2;SDS_P1;SDS_P2;PMS_P1;PMS_P2;Temp;Humidity;BMP_temperature;BMP_pressure;BME280_temperature;BME280_humidity;BME280_pressure;Samples;Min_cycle;Max_cycle;Signal;HPM_P1;HPM_P2
2022/05/06 00:01:29;;;;;;;11.93;9.83;;;10.30;99.90;;;;;;5018434;28;20614;-80
2022/05/06 00:03:55;;;;;;;11.07;9.73;;;10.30;99.90;;;;;;5019650;28;20248;-79
2022/05/06 00:06:21;;;;;;;10.60;9.20;;;10.20;99.90;;;;;;5018512;28;20178;-79
2022/05/06 00:08:47;;;;;;;10.73;9.30;;;10.20;99.90;;;;;;5018277;28;20171;-79
2022/05/06 00:11:13;;;;;;;11.73;9.43;;;10.30;99.90;;;;;;5019801;28;20677;-79
2022/05/06 00:13:38;;;;;;;11.43;9.40;;;10.30;99.90;;;;;;5019453;28;20194;-79
2022/05/06 00:16:04;;;;;;;11.10;9.40;;;10.20;99.90;;;;;;5019705;28;20184;-79
2022/05/06 00:18:35;;;;;;;12.60;10.87;;;10.20;99.90;;;;;;5018223;28;20213;-80
2022/05/06 00:21:00;;;;;;;10.83;9.73;;;10.20;99.90;;;;;;5019494;28;20204;-79
2022/05/06 00:23:26;;;;;;;10.17;8.57;;;10.30;99.90;;;;;;5019499;28;20199;-79
2022/05/06 00:25:52;;;;;;;11.97;9.67;;;10.30;99.90;;;;;;5018175;28;20175;-79
2022/05/06 00:28:18;;;;;;;12.33;10.63;;;10.20;99.90;;;;;;5018139;28;20175;-79
2022/05/06 00:30:44;;;;;;;12.77;10.20;;;10.20;99.90;;;;;;5017662;28;20239;-79
2022/05/06 00:33:10;;;;;;;13.73;10.50;;;10.20;99.90;;;;;;5019135;28;20204;-79
2022/05/06 00:35:39;;;;;;;11.93;10.07;;;10.20;99.90;;;;;;5018629;28;20543;-79
2022/05/06 00:38:05;;;;;;;10.83;9.37;;;10.20;99.90;;;;;;5018611;28;20167;-79
2022/05/06 00:40:31;;;;;;;12.93;10.03;;;10.20;99.90;;;;;;5018481;28;20612;-79
2022/05/06 00:42:57;;;;;;;10.40;9.30;;;10.20;99.90;;;;;;5018671;28;20727;-79
2022/05/06 00:45:23;;;;;;;13.87;9.30;;;10.20;99.90;;;;;;5018343;28;20386;-79
2022/05/06 00:47:52;;;;;;;9.90;8.70;;;10.20;99.90;;;;;;5017037;28;20210;-79
2022/05/06 00:50:18;;;;;;;11.27;9.27;;;10.20;99.90;;;;;;5017833;28;20263;-79
2022/05/06 00:52:44;;;;;;;10.27;8.73;;;10.20;99.90;;;;;;5017894;28;20226;-79
2022/05/06 00:55:10;;;;;;;11.83;9.00;;;10.20;99.90;;;;;;5017538;28;20175;-79
2022/05/06 00:57:36;;;;;;;9.53;8.27;;;10.20;99.90;;;;;;5016981;28;20175;-79
2022/05/06 01:00:19;;;;;;;10.17;8.57;;;10.30;99.90;;;;;;5016131;28;20551;-79
2022/05/06 01:02:48;;;;;;;9.70;8.00;;;10.30;99.90;;;;;;5017317;28;20195;-79
2022/05/06 01:05:15;;;;;;;8.83;7.93;;;10.30;99.90;;;;;;5017439;28;20178;-79
2022/05/06 01:07:43;;;;;;;10.80;8.47;;;10.30;99.90;;;;;;5017631;28;20551;-79
2022/05/06 01:10:09;;;;;;;9.17;7.93;;;10.30;99.90;;;;;;5018560;28;20170;-79
2022/05/06 01:12:35;;;;;;;32.60;24.03;;;10.20;99.90;;;;;;5018649;28;20191;-79
2022/05/06 01:15:00;;;;;;;162.57;98.67;;;10.20;99.90;;;;;;5018384;28;20263;-79
2022/05/06 01:17:26;;;;;;;83.37;48.53;;;10.20;99.90;;;;;;5018405;28;20182;-79
2022/05/06 01:19:52;;;;;;;61.40;44.30;;;10.00;99.90;;;;;;5017507;28;20171;-79
2022/05/06 01:22:17;;;;;;;9.53;7.83;;;9.80;99.90;;;;;;5018562;28;20187;-79
2022/05/06 01:24:44;;;;;;;9.03;6.07;;;9.90;99.90;;;;;;5017395;28;20210;-79
2022/05/06 01:27:26;;;;;;;7.73;5.90;;;9.80;99.90;;;;;;5018673;28;20167;-79
2022/05/06 01:29:53;;;;;;;8.60;5.77;;;9.90;99.90;;;;;;5017200;28;20632;-79
2022/05/06 01:32:22;;;;;;;3.80;3.40;;;10.00;99.90;;;;;;5017267;28;20197;-79
2022/05/06 01:34:50;;;;;;;3.70;3.10;;;10.00;99.90;;;;;;5018203;28;20198;-79
2022/05/06 01:37:19;;;;;;;4.33;3.20;;;9.90;99.90;;;;;;5017509;28;20180;-79
2022/05/06 01:39:48;;;;;;;3.80;3.23;;;9.80;99.90;;;;;;5018119;28;20239;-80
2022/05/06 01:42:18;;;;;;;3.30;2.90;;;9.90;99.90;;;;;;5016770;28;20195;-79
2022/05/06 01:44:47;;;;;;;3.23;2.80;;;9.90;99.90;;;;;;5017193;28;20229;-79
2022/05/06 01:47:18;;;;;;;3.03;2.73;;;9.90;99.90;;;;;;5016867;28;20181;-79
2022/05/06 01:49:46;;;;;;;2.53;2.33;;;9.90;99.90;;;;;;5018330;28;20170;-79
2022/05/06 01:52:16;;;;;;;3.13;2.83;;;10.00;99.90;;;;;;5017806;28;20214;-79
2022/05/06 01:54:42;;;;;;;3.07;2.87;;;9.90;99.90;;;;;;5018337;28;20155;-79
2022/05/06 01:57:08;;;;;;;3.23;2.80;;;9.90;99.90;;;;;;5016750;28;20537;-79
2022/05/06 01:59:33;;;;;;;2.70;2.50;;;9.80;99.90;;;;;;5018036;28;20181;-79
2022/05/06 02:01:59;;;;;;;3.07;2.77;;;9.90;99.90;;;;;;5018378;28;20171;-79
2022/05/06 02:07:09;;;;;;;3.00;2.43;;;9.90;99.90;;;;;;5018387;28;20293;-79
2022/05/06 02:09:35;;;;;;;3.10;2.80;;;9.90;99.90;;;;;;5017981;28;20199;-79
2022/05/06 02:12:01;;;;;;;3.60;3.03;;;9.90;99.90;;;;;;5017471;28;20198;-79
2022/05/06 02:14:27;;;;;;;3.20;2.63;;;9.90;99.90;;;;;;5017375;28;20262;-79
2022/05/06 02:16:53;;;;;;;3.70;2.93;;;9.90;99.90;;;;;;5017124;28;20171;-79
2022/05/06 02:19:19;;;;;;;2.87;2.57;;;9.80;99.90;;;;;;5017104;28;20185;-79
2022/05/06 02:21:44;;;;;;;3.50;2.73;;;9.90;99.90;;;;;;5016847;28;20176;-79
2022/05/06 02:24:12;;;;;;;3.67;2.60;;;9.90;99.90;;;;;;5016792;28;20340;-79
2022/05/06 02:26:37;;;;;;;2.77;2.57;;;9.90;99.90;;;;;;5015747;28;20227;-79
2022/05/06 02:29:04;;;;;;;2.50;2.27;;;9.90;99.90;;;;;;5017640;28;20182;-79
2022/05/06 02:34:18;;;;;;;2.43;1.90;;;9.70;99.90;;;;;;5017335;28;20530;-79
2022/05/06 02:36:45;;;;;;;2.93;2.30;;;9.70;99.90;;;;;;5017426;28;20174;-79
2022/05/06 02:39:11;;;;;;;1.90;1.77;;;9.60;99.90;;;;;;5017560;28;20196;-79
2022/05/06 02:41:36;;;;;;;2.10;1.90;;;9.60;99.90;;;;;;5017020;28;20251;-79
2022/05/06 02:44:04;;;;;;;2.30;2.10;;;9.60;99.90;;;;;;5017423;28;20210;-80
2022/05/06 02:46:31;;;;;;;2.83;2.20;;;9.60;99.90;;;;;;5015773;28;20179;-80
2022/05/06 02:48:56;;;;;;;2.67;2.20;;;9.60;99.90;;;;;;5015984;28;20271;-79
2022/05/06 02:51:22;;;;;;;2.13;1.93;;;9.60;99.90;;;;;;5017005;28;20640;-79
2022/05/06 02:53:48;;;;;;;2.20;2.00;;;9.60;99.90;;;;;;5015455;28;20596;-79
2022/05/06 02:56:13;;;;;;;2.57;2.27;;;9.70;99.90;;;;;;5015608;28;20209;-79
2022/05/06 02:58:39;;;;;;;2.53;2.33;;;9.70;99.90;;;;;;5016978;28;20205;-79
2022/05/06 03:01:04;;;;;;;2.57;2.30;;;9.70;99.90;;;;;;5016862;28;20642;-79
2022/05/06 03:03:33;;;;;;;2.17;1.97;;;9.70;99.90;;;;;;5015113;28;20224;-80
2022/05/06 03:06:00;;;;;;;2.90;2.60;;;9.70;99.90;;;;;;5016665;28;20171;-80
2022/05/06 03:08:25;;;;;;;2.13;1.93;;;9.70;99.90;;;;;;5015179;28;20655;-80
2022/05/06 03:10:51;;;;;;;2.67;2.37;;;9.70;99.90;;;;;;5016527;28;20188;-79
2022/05/06 03:13:17;;;;;;;3.13;2.10;;;9.80;99.90;;;;;;5016463;28;20268;-79
2022/05/06 03:15:43;;;;;;;2.40;2.20;;;9.80;99.90;;;;;;5016548;28;20544;-80
2022/05/06 03:18:09;;;;;;;2.23;2.03;;;9.80;99.90;;;;;;5016232;28;20197;-79
2022/05/06 03:20:37;;;;;;;2.67;2.43;;;9.70;99.90;;;;;;5016159;28;20237;-80
2022/05/06 03:23:03;;;;;;;2.03;1.83;;;9.70;99.90;;;;;;5016396;28;20206;-80
2022/05/06 03:25:29;;;;;;;2.37;2.17;;;9.70;99.90;;;;;;5015862;28;20230;-79
2022/05/06 03:28:07;;;;;;;2.97;2.30;;;9.80;99.90;;;;;;5016474;28;20179;-80
2022/05/06 03:30:40;;;;;;;2.80;2.50;;;9.80;99.90;;;;;;5016060;28;20684;-79
2022/05/06 03:33:08;;;;;;;2.97;2.77;;;9.80;99.90;;;;;;5014688;28;20670;-80
2022/05/06 03:35:35;;;;;;;2.90;2.60;;;9.80;99.90;;;;;;5018074;28;20266;-80
2022/05/06 03:38:00;;;;;;;3.40;3.10;;;9.80;99.90;;;;;;5020299;28;20175;-80
2022/05/06 03:40:26;;;;;;;3.00;2.63;;;9.90;99.90;;;;;;5019495;28;20562;-80
2022/05/06 03:42:52;;;;;;;3.60;2.87;;;9.80;99.90;;;;;;5018317;28;20232;-80
2022/05/06 03:45:18;;;;;;;3.10;2.80;;;9.80;99.90;;;;;;5018291;28;20513;-80
2022/05/06 03:47:44;;;;;;;3.33;2.93;;;9.80;99.90;;;;;;5019356;28;20235;-79
2022/05/06 03:52:54;;;;;;;6.23;3.20;;;9.80;99.90;;;;;;5019066;28;20691;-79
2022/05/06 03:55:20;;;;;;;3.93;3.53;;;9.80;99.90;;;;;;5018882;28;20175;-79
2022/05/06 03:57:47;;;;;;;3.80;3.13;;;9.80;99.90;;;;;;5019227;28;20263;-79
2022/05/06 04:00:14;;;;;;;3.53;3.03;;;9.80;99.90;;;;;;5018305;28;20171;-80
2022/05/06 04:02:40;;;;;;;3.30;3.00;;;9.70;99.90;;;;;;5017470;28;20197;-80
2022/05/06 04:05:06;;;;;;;3.87;3.23;;;9.70;99.90;;;;;;5017911;28;20632;-80
2022/05/06 04:07:32;;;;;;;3.30;3.00;;;9.70;99.90;;;;;;5020214;28;20179;-80
2022/05/06 04:09:58;;;;;;;4.13;3.70;;;9.70;99.90;;;;;;5019691;28;20173;-80
2022/05/06 04:12:23;;;;;;;4.83;3.30;;;9.80;99.90;;;;;;5018607;28;20201;-80
2022/05/06 04:14:52;;;;;;;3.53;3.23;;;9.80;99.90;;;;;;5019700;28;20177;-80
2022/05/06 04:17:20;;;;;;;3.60;3.30;;;9.80;99.90;;;;;;5018459;28;20640;-80
2022/05/06 04:25:16;;;;;;;5.13;4.33;;;9.70;99.90;;;;;;5019856;28;20207;-80
2022/05/06 04:27:43;;;;;;;5.40;4.90;;;9.70;99.90;;;;;;5018861;28;20572;-80
2022/05/06 04:30:09;;;;;;;4.63;4.13;;;9.70;99.90;;;;;;5018624;28;20175;-80
2022/05/06 04:32:35;;;;;;;6.43;4.70;;;9.80;99.90;;;;;;5020308;28;20682;-80
2022/05/06 04:35:04;;;;;;;5.50;5.00;;;9.80;99.90;;;;;;5019957;28;20167;-80
2022/05/06 04:37:30;;;;;;;6.07;4.93;;;9.80;99.90;;;;;;5018819;28;20210;-81
2022/05/06 04:39:56;;;;;;;6.43;5.20;;;9.80;99.90;;;;;;5019797;28;20198;-79
2022/05/06 04:42:22;;;;;;;6.63;5.37;;;9.80;99.90;;;;;;5020503;28;20704;-80
2022/05/06 04:44:48;;;;;;;5.33;4.83;;;9.80;99.90;;;;;;5019427;28;20287;-80
2022/05/06 04:47:13;;;;;;;6.40;5.47;;;9.80;99.90;;;;;;5018920;28;20170;-80
2022/05/06 04:49:39;;;;;;;6.77;6.07;;;9.80;99.90;;;;;;5017480;28;20175;-80
2022/05/06 04:52:05;;;;;;;8.13;5.83;;;9.90;99.90;;;;;;5019067;28;20676;-80
2022/05/06 04:54:31;;;;;;;9.10;5.70;;;9.90;99.90;;;;;;5017606;28;20644;-80
2022/05/06 04:56:57;;;;;;;6.07;5.40;;;10.00;99.90;;;;;;5019034;28;20190;-80
2022/05/06 04:59:22;;;;;;;7.20;6.50;;;10.00;99.90;;;;;;5019004;28;20175;-80
2022/05/06 05:01:49;;;;;;;9.57;7.37;;;10.00;99.90;;;;;;5017335;28;20188;-80
2022/05/06 05:04:15;;;;;;;10.27;7.60;;;10.00;99.90;;;;;;5019179;28;20201;-80
2022/05/06 05:06:41;;;;;;;9.13;7.70;;;10.10;99.90;;;;;;5018332;28;20192;-80
2022/05/06 05:09:07;;;;;;;9.10;6.67;;;10.10;99.90;;;;;;5018702;28;20216;-80
2022/05/06 05:11:34;;;;;;;13.67;8.83;;;10.20;99.90;;;;;;5019004;28;20173;-80
2022/05/06 05:14:02;;;;;;;10.13;8.07;;;10.20;99.90;;;;;;5018548;28;20687;-80
2022/05/06 05:16:31;;;;;;;13.90;9.43;;;10.20;99.90;;;;;;5021754;28;20290;-80
2022/05/06 05:18:56;;;;;;;16.97;11.23;;;10.30;99.90;;;;;;5019260;28;20276;-79
2022/05/06 05:21:22;;;;;;;14.37;10.37;;;10.40;99.90;;;;;;5018500;28;20209;-81
2022/05/06 05:23:48;;;;;;;10.33;8.50;;;10.40;99.90;;;;;;5018965;28;20207;-80
2022/05/06 05:26:13;;;;;;;12.13;9.40;;;10.40;99.90;;;;;;5017471;28;20181;-80
2022/05/06 05:28:39;;;;;;;12.17;9.90;;;10.40;99.90;;;;;;5018738;28;20537;-80
2022/05/06 05:31:05;;;;;;;13.77;9.43;;;10.40;99.90;;;;;;5018236;28;20167;-80
2022/05/06 05:33:31;;;;;;;11.27;8.90;;;10.50;99.90;;;;;;5017512;28;20201;-80
2022/05/06 05:35:56;;;;;;;12.70;9.37;;;10.50;99.90;;;;;;5016768;28;20669;-80
2022/05/06 05:38:22;;;;;;;9.87;7.83;;;10.50;99.90;;;;;;5017417;28;20180;-80
2022/05/06 05:40:48;;;;;;;10.00;7.80;;;10.40;99.90;;;;;;5018214;28;20175;-80
2022/05/06 05:48:42;;;;;;;11.17;7.60;;;10.40;99.90;;;;;;5017804;28;20635;-80
2022/05/06 05:51:09;;;;;;;9.00;7.47;;;10.40;99.90;;;;;;5017569;28;20619;-80
2022/05/06 05:53:34;;;;;;;8.47;7.33;;;10.50;99.90;;;;;;5017757;28;20195;-80
2022/05/06 05:56:00;;;;;;;11.57;7.93;;;10.60;99.90;;;;;;5016821;28;20197;-80
2022/05/06 05:58:26;;;;;;;9.17;7.47;;;10.60;99.90;;;;;;5017009;28;20178;-80
2022/05/06 06:00:52;;;;;;;12.13;7.43;;;10.60;99.90;;;;;;5017919;28;20181;-80
2022/05/06 06:03:18;;;;;;;9.77;7.73;;;10.70;99.90;;;;;;5016977;28;20207;-80
2022/05/06 06:05:44;;;;;;;9.67;8.07;;;10.80;99.90;;;;;;5016182;28;20178;-80
2022/05/06 06:08:10;;;;;;;13.00;9.17;;;10.80;99.90;;;;;;5018246;28;20256;-80
2022/05/06 06:10:36;;;;;;;14.17;11.63;;;10.80;99.90;;;;;;5017615;28;20171;-80
2022/05/06 06:13:04;;;;;;;13.17;11.77;;;10.70;99.90;;;;;;5017469;28;20261;-80
2022/05/06 06:15:30;;;;;;;16.47;12.23;;;10.70;99.90;;;;;;5017059;28;20179;-80
2022/05/06 06:17:56;;;;;;;15.00;12.57;;;10.80;99.90;;;;;;5016410;28;20604;-81
2022/05/06 06:20:23;;;;;;;15.47;12.90;;;10.80;99.90;;;;;;5016244;28;20189;-80
2022/05/06 06:22:49;;;;;;;16.50;12.93;;;10.80;99.90;;;;;;5015402;28;20206;-80
2022/05/06 06:25:15;;;;;;;15.27;12.83;;;10.90;99.90;;;;;;5017923;28;20178;-80
2022/05/06 06:27:41;;;;;;;15.50;12.20;;;10.90;99.90;;;;;;5016415;28;20660;-80
2022/05/06 06:30:08;;;;;;;15.47;12.77;;;10.90;99.90;;;;;;5015928;28;20265;-80
2022/05/06 06:32:33;;;;;;;14.53;11.47;;;11.00;99.90;;;;;;5017022;28;20222;-80
2022/05/06 06:34:59;;;;;;;13.97;11.87;;;11.00;99.90;;;;;;5015673;28;20699;-80
2022/05/06 06:37:25;;;;;;;14.77;12.33;;;11.00;99.90;;;;;;5017337;28;20237;-80
2022/05/06 06:39:51;;;;;;;14.40;11.00;;;10.90;99.90;;;;;;5016118;28;20197;-80
2022/05/06 06:42:17;;;;;;;14.07;11.63;;;10.90;99.90;;;;;;5017652;28;20217;-80
2022/05/06 06:44:44;;;;;;;13.93;12.43;;;10.90;99.90;;;;;;5015718;28;20226;-80
2022/05/06 06:47:10;;;;;;;14.33;12.10;;;10.90;99.90;;;;;;5015383;28;20182;-80
2022/05/06 06:49:36;;;;;;;13.73;11.63;;;10.90;99.90;;;;;;5016054;28;20687;-80
2022/05/06 06:52:03;;;;;;;13.83;12.30;;;11.00;99.90;;;;;;5014693;28;20183;-79
2022/05/06 06:54:28;;;;;;;14.33;12.63;;;11.00;99.90;;;;;;5014569;28;20539;-80
2022/05/06 06:56:54;;;;;;;14.43;12.03;;;11.10;99.90;;;;;;5015951;28;20637;-79
2022/05/06 06:59:19;;;;;;;14.70;11.77;;;11.10;99.90;;;;;;5013876;28;20186;-80
2022/05/06 07:01:45;;;;;;;16.17;13.30;;;;;;;;;;5014921;28;20279;-80
2022/05/06 07:04:11;;;;;;;15.90;13.33;;;11.10;99.90;;;;;;5014614;28;20249;-80
2022/05/06 07:12:05;;;;;;;13.53;11.70;;;11.70;99.90;;;;;;5019418;28;20170;-80
2022/05/06 07:14:33;;;;;;;12.90;10.67;;;11.70;99.90;;;;;;5018497;28;20210;-80
2022/05/06 07:16:58;;;;;;;11.57;10.13;;;11.80;99.90;;;;;;5015096;28;20190;-79
2022/05/06 07:19:24;;;;;;;13.67;10.70;;;11.80;99.90;;;;;;5016799;28;20187;-80
2022/05/06 07:21:51;;;;;;;11.00;9.83;;;11.90;99.90;;;;;;5015297;28;20186;-80
2022/05/06 07:24:19;;;;;;;9.90;8.53;;;11.90;99.90;;;;;;5015110;28;20207;-79
2022/05/06 07:26:45;;;;;;;9.40;7.73;;;11.80;99.90;;;;;;5015287;28;20261;-80
2022/05/06 07:29:11;;;;;;;6.83;6.13;;;11.80;99.90;;;;;;5016294;28;20263;-80
2022/05/06 07:31:37;;;;;;;6.37;5.70;;;11.80;99.90;;;;;;5015458;28;20175;-80
2022/05/06 07:34:03;;;;;;;6.30;5.70;;;11.80;99.90;;;;;;5015050;28;20570;-80
2022/05/06 07:36:28;;;;;;;6.47;5.80;;;11.90;99.90;;;;;;5015129;28;20218;-80
2022/05/06 07:38:54;;;;;;;6.07;5.47;;;12.00;99.90;;;;;;5016337;28;20194;-80
2022/05/06 07:41:20;;;;;;;5.97;5.33;;;12.10;99.90;;;;;;5015657;28;20183;-80
2022/05/06 07:43:45;;;;;;;4.63;3.93;;;12.00;99.90;;;;;;5016538;28;20564;-80
2022/05/06 07:46:11;;;;;;;4.47;4.03;;;12.00;99.90;;;;;;5015112;28;20293;-80
2022/05/06 07:48:37;;;;;;;4.00;3.13;;;12.00;99.90;;;;;;5016234;28;20229;-80
2022/05/06 07:51:04;;;;;;;3.77;3.27;;;12.10;99.90;;;;;;5016629;28;20232;-80
2022/05/06 07:53:30;;;;;;;2.87;2.57;;;12.30;99.90;;;;;;5016033;28;20233;-80
2022/05/06 07:55:55;;;;;;;3.33;2.30;;;12.50;99.90;;;;;;5016370;28;20272;-80
2022/05/06 07:58:21;;;;;;;2.73;2.53;;;12.80;99.90;;;;;;5016111;28;20186;-80
2022/05/06 08:00:47;;;;;;;3.33;3.00;;;13.10;99.90;;;;;;5016329;28;20183;-80
2022/05/06 08:05:57;;;;;;;2.80;2.60;;;13.50;99.90;;;;;;5016389;28;20212;-80
2022/05/06 08:08:27;;;;;;;3.80;2.63;;;13.40;99.90;;;;;;5016196;28;20179;-80
2022/05/06 08:10:53;;;;;;;2.97;2.67;;;13.50;99.90;;;;;;5015006;28;20625;-80
2022/05/06 08:13:20;;;;;;;3.40;3.10;;;13.50;99.90;;;;;;5015349;28;20231;-80
2022/05/06 08:15:47;;;;;;;3.27;2.80;;;13.60;99.90;;;;;;5015087;28;20178;-79
2022/05/06 08:18:12;;;;;;;3.97;2.83;;;13.60;99.90;;;;;;5016925;28;20230;-80
2022/05/06 08:20:39;;;;;;;4.13;2.60;;;13.70;99.90;;;;;;5015626;28;20179;-80
2022/05/06 08:23:06;;;;;;;3.13;2.60;;;13.60;99.90;;;;;;5018632;28;20233;-80
2022/05/06 08:25:32;;;;;;;2.07;1.87;;;13.40;99.90;;;;;;5018576;28;20551;-80
2022/05/06 08:27:57;;;;;;;2.80;1.97;;;13.30;99.90;;;;;;5020231;28;20175;-80
2022/05/06 08:30:24;;;;;;;3.57;2.47;;;13.20;99.90;;;;;;5018467;28;20182;-80
2022/05/06 08:32:51;;;;;;;3.83;2.80;;;13.30;99.90;;;;;;5018637;28;20195;-80
2022/05/06 08:35:16;;;;;;;6.83;2.50;;;13.30;99.90;;;;;;5018607;28;20198;-80
2022/05/06 08:37:44;;;;;;;2.87;2.60;;;13.40;99.90;;;;;;5020195;28;20167;-80
2022/05/06 08:40:25;;;;;;;3.23;2.70;;;13.50;99.90;;;;;;5018329;28;20286;-80
2022/05/06 08:42:51;;;;;;;5.57;2.73;;;13.70;99.90;;;;;;5018269;28;20195;-80
2022/05/06 08:50:53;;;;;;;4.83;2.37;;;13.80;99.90;;;;;;5020644;28;20290;-80
2022/05/06 08:53:30;;;;;;;2.53;2.33;;;13.90;99.90;;;;;;5018508;28;20215;-80
2022/05/06 08:55:58;;;;;;;2.27;2.07;;;13.80;99.90;;;;;;5018168;28;20222;-80
2022/05/06 08:58:25;;;;;;;4.13;2.67;;;13.80;99.90;;;;;;5019023;28;20183;-80
2022/05/06 09:00:59;;;;;;;6.13;2.57;;;13.80;99.90;;;;;;5019671;28;20262;-80
2022/05/06 09:03:25;;;;;;;3.30;2.47;;;13.70;99.90;;;;;;5020012;28;20227;-80
2022/05/06 09:05:55;;;;;;;3.17;2.17;;;13.40;99.90;;;;;;5018629;28;20178;-80
2022/05/06 09:08:34;;;;;;;2.83;2.30;;;13.30;99.90;;;;;;5018547;28;20171;-80
2022/05/06 09:11:04;;;;;;;2.93;2.23;;;13.00;99.90;;;;;;5024449;28;20210;-79
2022/05/06 09:13:31;;;;;;;4.07;2.20;;;12.80;99.90;;;;;;5023850;28;20203;-79
2022/05/06 09:19:15;;;;;;;4.37;2.60;;;12.50;99.90;;;;;;5020064;28;20170;-79
2022/05/06 09:22:00;;;;;;;3.47;2.63;;;12.50;99.90;;;;;;5017783;28;20229;-79
2022/05/06 09:24:30;;;;;;;2.57;2.30;;;12.40;99.90;;;;;;5018691;28;20196;-79
2022/05/06 09:27:06;;;;;;;3.13;2.20;;;12.30;99.90;;;;;;5017941;28;20256;-79
2022/05/06 09:29:37;;;;;;;2.60;2.17;;;12.30;99.90;;;;;;5018665;28;20202;-79
2022/05/06 09:32:24;;;;;;;3.07;2.30;;;12.40;99.90;;;;;;5016238;28;20170;-79
2022/05/06 09:35:05;;;;;;;2.97;2.00;;;12.40;99.90;;;;;;5018402;28;20167;-79
2022/05/06 09:37:42;;;;;;;3.80;2.23;;;12.50;99.90;;;;;;5017269;28;20641;-79
2022/05/06 09:40:15;;;;;;;3.20;2.37;;;12.50;99.90;;;;;;5017030;28;20206;-79
2022/05/06 09:42:43;;;;;;;2.60;2.40;;;12.70;99.90;;;;;;5018360;28;20656;-80
2022/05/06 09:45:11;;;;;;;1.80;1.70;;;12.70;99.90;;;;;;5018287;28;20172;-79
2022/05/06 09:47:38;;;;;;;2.40;2.10;;;12.80;99.90;;;;;;5016810;28;20212;-79
2022/05/06 09:50:06;;;;;;;2.40;1.80;;;12.70;99.90;;;;;;5017941;28;20183;-79
2022/05/06 09:52:31;;;;;;;2.70;2.20;;;12.60;99.90;;;;;;5016838;28;20222;-79
2022/05/06 09:54:57;;;;;;;2.43;1.80;;;12.60;99.90;;;;;;5017167;28;20551;-80
2022/05/06 09:57:23;;;;;;;3.30;2.03;;;12.60;99.90;;;;;;5015503;28;20652;-79
2022/05/06 09:59:50;;;;;;;1.77;1.67;;;12.60;99.90;;;;;;5016526;28;20250;-79
2022/05/06 10:02:17;;;;;;;3.17;1.70;;;12.70;99.90;;;;;;5016398;28;20191;-79
2022/05/06 10:04:44;;;;;;;4.30;1.93;;;12.70;99.90;;;;;;5014962;28;20214;-80
2022/05/06 10:07:15;;;;;;;1.80;1.70;;;12.70;99.90;;;;;;5016016;28;20171;-80
2022/05/06 10:10:01;;;;;;;1.83;1.70;;;12.60;99.90;;;;;;5017679;28;20205;-80
2022/05/06 10:12:44;;;;;;;2.10;1.90;;;12.50;99.90;;;;;;5018761;28;20189;-80
2022/05/06 10:15:12;;;;;;;1.83;1.63;;;12.40;99.90;;;;;;5018026;28;20166;-80
2022/05/06 10:17:58;;;;;;;2.33;1.67;;;12.30;99.90;;;;;;5017642;28;20183;-80
2022/05/06 10:20:36;;;;;;;1.57;1.47;;;12.30;99.90;;;;;;5016902;28;20190;-80
2022/05/06 10:23:07;;;;;;;4.33;2.27;;;12.20;99.90;;;;;;5016424;28;20206;-80
2022/05/06 10:25:46;;;;;;;1.97;1.80;;;12.20;99.90;;;;;;5018582;28;20151;-80
2022/05/06 10:34:27;;;;;;;3.30;2.40;;;12.00;99.90;;;;;;5006637;28;20221;-79
2022/05/06 10:36:54;;;;;;;2.50;1.77;;;12.00;99.90;;;;;;5015997;28;20204;-80
2022/05/06 10:39:25;;;;;;;3.97;2.30;;;11.90;99.90;;;;;;5016422;28;20190;-80
2022/05/06 10:42:15;;;;;;;3.00;2.33;;;11.70;99.90;;;;;;5016720;28;20202;-80
2022/05/06 10:44:50;;;;;;;3.50;2.53;;;11.70;99.90;;;;;;5016155;28;20203;-79
2022/05/06 10:47:16;;;;;;;3.40;2.17;;;11.70;99.90;;;;;;5017892;28;20233;-79
2022/05/06 10:49:43;;;;;;;2.70;2.40;;;11.70;99.90;;;;;;5017925;28;20637;-80
2022/05/06 10:52:23;;;;;;;4.00;3.00;;;11.70;99.90;;;;;;5016227;28;20218;-79
2022/05/06 10:55:00;;;;;;;3.03;2.40;;;11.70;99.90;;;;;;5017008;28;20175;-80
2022/05/06 10:57:29;;;;;;;4.10;2.80;;;11.80;99.90;;;;;;5016148;28;20312;-80
2022/05/06 10:59:56;;;;;;;4.70;3.63;;;11.70;99.90;;;;;;5016690;28;20175;-80
2022/05/06 11:02:28;;;;;;;4.63;3.10;;;11.70;99.90;;;;;;5017478;28;20251;-79
2022/05/06 11:05:04;;;;;;;4.63;3.60;;;11.70;99.90;;;;;;5017252;28;20198;-80
2022/05/06 11:07:32;;;;;;;4.23;3.83;;;11.60;99.90;;;;;;5015817;28;20182;-79
2022/05/06 11:09:59;;;;;;;5.97;3.97;;;11.60;99.90;;;;;;5015441;28;20179;-80
2022/05/06 11:12:33;;;;;;;4.10;3.70;;;11.60;99.90;;;;;;5016241;28;20292;-80
2022/05/06 11:15:03;;;;;;;5.23;3.50;;;11.70;99.90;;;;;;5016704;28;20181;-79
2022/05/06 11:17:31;;;;;;;3.60;3.30;;;11.70;99.90;;;;;;5017338;28;20182;-80
2022/05/06 11:19:58;;;;;;;6.43;4.40;;;11.70;99.90;;;;;;5016693;28;20210;-80
2022/05/06 11:22:25;;;;;;;6.60;4.67;;;11.70;99.90;;;;;;5016588;28;20296;-80
2022/05/06 11:24:58;;;;;;;5.53;4.60;;;11.70;99.90;;;;;;5017486;28;20194;-79
2022/05/06 11:27:24;;;;;;;6.20;4.17;;;11.70;99.90;;;;;;5016611;28;20635;-80
2022/05/06 11:29:58;;;;;;;9.60;7.37;;;11.80;99.90;;;;;;5014882;28;20165;-79
2022/05/06 11:32:26;;;;;;;9.20;7.30;;;11.90;99.90;;;;;;5014644;28;20209;-80
2022/05/06 11:34:58;;;;;;;6.97;5.70;;;12.10;99.90;;;;;;5015997;28;20687;-80
2022/05/06 11:37:26;;;;;;;6.40;5.40;;;12.10;99.90;;;;;;5016228;28;20208;-80
2022/05/06 11:40:18;;;;;;;7.03;6.13;;;12.20;99.90;;;;;;5016036;28;20216;-80
2022/05/06 11:42:39;;;;;;;9.07;8.10;;;12.30;99.90;;;;;;5016366;28;20203;-80
2022/05/06 11:47:49;;;;;;;11.00;9.80;;;12.30;99.90;;;;;;5016443;28;20174;-79
2022/05/06 11:50:15;;;;;;;10.13;8.13;;;12.30;99.90;;;;;;5014041;28;20565;-80
2022/05/06 11:52:43;;;;;;;9.37;8.00;;;12.20;99.90;;;;;;5015633;28;20226;-80
2022/05/06 11:55:09;;;;;;;8.60;7.70;;;12.20;99.90;;;;;;5014735;28;20178;-80
2022/05/06 11:57:37;;;;;;;8.43;7.13;;;12.20;99.90;;;;;;5019893;28;20183;-79
2022/05/06 12:00:04;;;;;;;9.00;6.50;;;12.20;99.90;;;;;;5019804;28;20225;-79
2022/05/06 12:02:30;;;;;;;7.50;6.80;;;12.10;99.90;;;;;;5018204;28;20198;-79
2022/05/06 12:04:56;;;;;;;9.83;7.90;;;12.10;99.90;;;;;;5019274;28;20256;-79
2022/05/06 12:07:22;;;;;;;12.20;9.37;;;;;;;;;;5018977;28;20220;-79
2022/05/06 12:09:48;;;;;;;11.93;10.43;;;12.00;99.90;;;;;;5019331;28;20178;-79
2022/05/06 12:12:13;;;;;;;12.50;10.00;;;11.60;99.90;;;;;;5019424;28;20207;-79
2022/05/06 12:14:40;;;;;;;13.07;10.57;;;;;;;;;;5019406;28;20179;-79
2022/05/06 12:17:13;;;;;;;13.37;10.83;;;11.50;99.90;;;;;;5019280;28;20190;-80
2022/05/06 12:19:43;;;;;;;11.40;10.20;;;11.50;99.90;;;;;;5017820;28;20183;-80
2022/05/06 12:22:21;;;;;;;13.50;11.10;;;11.60;99.90;;;;;;5018064;28;20206;-80
2022/05/06 12:24:50;;;;;;;11.23;8.53;;;11.40;99.90;;;;;;5019903;28;20286;-80
2022/05/06 12:27:26;;;;;;;10.83;9.30;;;11.70;99.90;;;;;;5019719;28;20250;-80
2022/05/06 12:29:53;;;;;;;11.03;9.30;;;11.20;99.90;;;;;;5019485;28;20166;-80
2022/05/06 12:32:19;;;;;;;10.30;8.53;;;11.40;99.90;;;;;;5018237;28;20233;-80
2022/05/06 12:34:44;;;;;;;9.63;8.63;;;11.30;99.90;;;;;;5018836;28;20190;-80
2022/05/06 12:37:16;;;;;;;9.87;8.57;;;11.70;99.90;;;;;;5020985;28;20191;-80
2022/05/06 12:39:48;;;;;;;10.93;9.57;;;11.40;99.90;;;;;;5021165;28;20194;-80
2022/05/06 12:42:18;;;;;;;10.60;9.50;;;11.40;99.90;;;;;;5019702;28;20265;-80
2022/05/06 12:44:45;;;;;;;11.13;9.23;;;11.50;99.90;;;;;;5020880;28;20200;-80
2022/05/06 12:47:12;;;;;;;9.20;7.63;;;11.50;99.90;;;;;;5020690;28;20186;-80
2022/05/06 12:49:40;;;;;;;8.50;7.53;;;11.40;99.90;;;;;;5021235;28;20186;-80
2022/05/06 12:52:10;;;;;;;8.80;7.87;;;11.30;99.90;;;;;;5019711;28;20186;-79
2022/05/06 12:54:37;;;;;;;10.23;7.70;;;11.30;99.90;;;;;;5021518;28;20174;-80
2022/05/06 12:57:04;;;;;;;10.57;6.70;;;11.30;99.90;;;;;;5019676;28;20182;-80
2022/05/06 12:59:30;;;;;;;7.67;6.60;;;11.30;99.90;;;;;;5020892;28;20202;-80
2022/05/06 13:01:57;;;;;;;8.13;6.30;;;11.50;99.90;;;;;;5020672;28;20183;-80
2022/05/06 13:04:23;;;;;;;8.57;6.67;;;11.40;99.90;;;;;;5021653;28;20194;-80
2022/05/06 13:06:49;;;;;;;8.03;7.23;;;;;;;;;;5021458;28;20719;-80
2022/05/06 13:09:15;;;;;;;9.50;7.77;;;;;;;;;;5019705;28;20171;-80
2022/05/06 13:11:40;;;;;;;9.90;7.47;;;11.70;99.90;;;;;;5020332;28;20175;-80
2022/05/06 13:14:07;;;;;;;9.70;7.97;;;;;;;;;;5021400;28;20201;-80
2022/05/06 13:16:35;;;;;;;11.87;9.30;;;11.90;99.90;;;;;;5018916;28;20185;-80
2022/05/06 13:19:04;;;;;;;9.20;8.23;;;12.10;99.90;;;;;;5018033;28;20210;-80
2022/05/06 13:21:30;;;;;;;8.50;7.63;;;;;;;;;;5020351;28;20548;-80
2022/05/06 13:23:56;;;;;;;9.10;8.13;;;11.90;99.90;;;;;;5019815;28;20230;-80
2022/05/06 13:26:22;;;;;;;8.20;7.40;;;11.80;99.90;;;;;;5019867;28;20645;-80
2022/05/06 13:28:47;;;;;;;10.03;7.83;;;11.70;99.90;;;;;;5018867;28;20175;-79
2022/05/06 13:31:13;;;;;;;11.83;8.47;;;;;;;;;;5019736;28;20193;-80
2022/05/06 13:33:40;;;;;;;9.67;8.67;;;;;;;;;;5018334;28;20202;-79
2022/05/06 13:36:06;;;;;;;13.43;10.17;;;11.50;99.90;;;;;;5018360;28;20225;-80